Portada
METAR-TAF:

METAR-TAF

Aeroports :

Le Touquet, França

latitud: 50-30-53N, longitud: 001-37-39E, altitud: 6 m

Observació

L'informe es va fer fa 29 minuts, a les 03:00 UTC
Vent 14 kt del Sud-Oest, variant entre Sud i Oest
Temperatura 11°C
Humitat 94%
Pressió 1020 hPa
Visibilitat 10 km o més
Cel cobert a una alçada de 600 ft

METAR: LFAT 230300Z AUTO 23014KT 190V270 9999 OVC006 11/10 Q1020

Hora: 04:29 (03:29 UTC)

Pronòstic

L'informe es va fer fa 13 hores i 29 minuts, a les 14:00 UTC
Pronòstic vàlid del 22 a les 15 UTC al 22 a les 24 UTC
Vent 15 kt del Oest/Sud-Oest
Visibilitat 10 km o més
Cel cobert a una alçada de 1200 ft
Temporalment
l' 22 a les 15 UTC al 22 a les 24 UTC
Vent 20 kt del Sud-Oest amb ràfegues de 30 kt
Visibilitat: 2000 m
Cel cobert a una alçada de 400 ft
plugim

TAF: LFAT 221400Z 2215/2224 24015KT 9999 OVC012 TEMPO 2215/2224 22020G30KT 2000 DZ OVC004

Observacions i pronòstics meteorològics de més de 4000 aeroports (METAR i TAF).

Les estacions disponibles són els punts grocs i vermells al mapa.

Posi el ratolí al punt desitjat per veure el nom de l'estació.

Feu clic per veure les observacions i els pronòstics meteorològics.

Per canviar el mapa: feu clic els botons verds amb una creu de color negre per apropar; al botó verd amb un guió per allunyar la imatge; o en les fletxes verdes per a mapes adjacents.


METAR-TAF: